sensor_id;sensor_type;location;lat;lon;timestamp;temperature;humidity
947;DHT22;460;48.734;9.152;2023-06-22T00:00:00;20.80;99.90
947;DHT22;460;48.734;9.152;2023-06-22T00:02:33;20.90;99.90
947;DHT22;460;48.734;9.152;2023-06-22T00:05:00;20.90;99.90
947;DHT22;460;48.734;9.152;2023-06-22T00:07:27;20.80;99.90
947;DHT22;460;48.734;9.152;2023-06-22T00:09:54;20.80;99.90
947;DHT22;460;48.734;9.152;2023-06-22T00:12:22;20.90;99.90
947;DHT22;460;48.734;9.152;2023-06-22T00:14:48;21.00;99.90
947;DHT22;460;48.734;9.152;2023-06-22T00:17:15;21.00;99.90
947;DHT22;460;48.734;9.152;2023-06-22T00:19:42;21.10;99.90
947;DHT22;460;48.734;9.152;2023-06-22T00:22:09;21.00;99.90
947;DHT22;460;48.734;9.152;2023-06-22T00:24:35;20.90;99.90
947;DHT22;460;48.734;9.152;2023-06-22T00:27:03;20.90;99.90
947;DHT22;460;48.734;9.152;2023-06-22T00:29:32;20.90;99.90
947;DHT22;460;48.734;9.152;2023-06-22T00:31:58;20.80;99.90
947;DHT22;460;48.734;9.152;2023-06-22T00:34:25;20.80;99.90
947;DHT22;460;48.734;9.152;2023-06-22T00:36:52;20.80;99.90
947;DHT22;460;48.734;9.152;2023-06-22T00:39:19;20.90;99.90
947;DHT22;460;48.734;9.152;2023-06-22T00:41:45;20.90;99.90
947;DHT22;460;48.734;9.152;2023-06-22T00:44:12;21.00;99.90
947;DHT22;460;48.734;9.152;2023-06-22T00:46:40;20.90;99.90
947;DHT22;460;48.734;9.152;2023-06-22T00:49:07;20.90;99.90
947;DHT22;460;48.734;9.152;2023-06-22T00:51:34;21.00;99.90
947;DHT22;460;48.734;9.152;2023-06-22T00:54:02;20.90;99.90
947;DHT22;460;48.734;9.152;2023-06-22T00:56:29;20.90;99.90
947;DHT22;460;48.734;9.152;2023-06-22T00:58:55;20.90;99.90
947;DHT22;460;48.734;9.152;2023-06-22T01:01:25;21.00;99.90
947;DHT22;460;48.734;9.152;2023-06-22T01:03:53;20.90;99.90
947;DHT22;460;48.734;9.152;2023-06-22T01:06:29;20.60;99.90
947;DHT22;460;48.734;9.152;2023-06-22T01:09:02;20.30;99.90
947;DHT22;460;48.734;9.152;2023-06-22T01:11:38;20.20;99.90
947;DHT22;460;48.734;9.152;2023-06-22T01:14:14;20.30;99.90
947;DHT22;460;48.734;9.152;2023-06-22T01:16:44;20.10;99.90
947;DHT22;460;48.734;9.152;2023-06-22T01:19:26;20.10;99.90
947;DHT22;460;48.734;9.152;2023-06-22T01:21:55;20.40;99.90
947;DHT22;460;48.734;9.152;2023-06-22T01:24:26;20.50;99.90
947;DHT22;460;48.734;9.152;2023-06-22T01:27:04;20.10;99.90
947;DHT22;460;48.734;9.152;2023-06-22T01:29:36;19.90;99.90
947;DHT22;460;48.734;9.152;2023-06-22T01:32:05;20.10;99.90
947;DHT22;460;48.734;9.152;2023-06-22T01:34:34;20.20;99.90
947;DHT22;460;48.734;9.152;2023-06-22T01:37:02;20.00;99.90
947;DHT22;460;48.734;9.152;2023-06-22T01:39:31;19.70;99.90
947;DHT22;460;48.734;9.152;2023-06-22T01:41:59;19.70;99.90
947;DHT22;460;48.734;9.152;2023-06-22T01:44:27;20.00;99.90
947;DHT22;460;48.734;9.152;2023-06-22T01:46:58;20.00;99.90
947;DHT22;460;48.734;9.152;2023-06-22T01:49:28;19.70;99.90
947;DHT22;460;48.734;9.152;2023-06-22T01:51:55;19.50;99.90
947;DHT22;460;48.734;9.152;2023-06-22T01:54:23;19.60;99.90
947;DHT22;460;48.734;9.152;2023-06-22T01:56:51;19.80;99.90
947;DHT22;460;48.734;9.152;2023-06-22T01:59:23;19.90;99.90
947;DHT22;460;48.734;9.152;2023-06-22T02:01:59;19.70;99.90
947;DHT22;460;48.734;9.152;2023-06-22T02:04:34;19.50;99.90
947;DHT22;460;48.734;9.152;2023-06-22T02:07:09;19.60;99.90
947;DHT22;460;48.734;9.152;2023-06-22T02:09:38;19.50;99.90
947;DHT22;460;48.734;9.152;2023-06-22T02:12:10;19.30;99.90
947;DHT22;460;48.734;9.152;2023-06-22T02:14:38;19.20;99.90
947;DHT22;460;48.734;9.152;2023-06-22T02:17:08;19.20;99.90
947;DHT22;460;48.734;9.152;2023-06-22T02:19:36;19.20;99.90
947;DHT22;460;48.734;9.152;2023-06-22T02:22:03;19.30;99.90
947;DHT22;460;48.734;9.152;2023-06-22T02:24:31;19.50;99.90
947;DHT22;460;48.734;9.152;2023-06-22T02:27:00;19.60;99.90
947;DHT22;460;48.734;9.152;2023-06-22T02:29:29;19.30;99.90
947;DHT22;460;48.734;9.152;2023-06-22T02:31:56;19.30;99.90
947;DHT22;460;48.734;9.152;2023-06-22T02:34:24;19.50;99.90
947;DHT22;460;48.734;9.152;2023-06-22T02:36:52;19.60;99.90
947;DHT22;460;48.734;9.152;2023-06-22T02:39:20;19.50;99.90
947;DHT22;460;48.734;9.152;2023-06-22T02:41:48;19.30;99.90
947;DHT22;460;48.734;9.152;2023-06-22T02:44:16;19.30;99.90
947;DHT22;460;48.734;9.152;2023-06-22T02:46:44;19.50;99.90
947;DHT22;460;48.734;9.152;2023-06-22T02:49:11;19.60;99.90
947;DHT22;460;48.734;9.152;2023-06-22T02:51:44;19.70;99.90
947;DHT22;460;48.734;9.152;2023-06-22T02:54:11;19.80;99.90
947;DHT22;460;48.734;9.152;2023-06-22T02:56:39;19.60;99.90
947;DHT22;460;48.734;9.152;2023-06-22T02:59:10;19.40;99.90
947;DHT22;460;48.734;9.152;2023-06-22T03:01:38;19.30;99.90
947;DHT22;460;48.734;9.152;2023-06-22T03:04:06;19.30;99.90
947;DHT22;460;48.734;9.152;2023-06-22T03:06:34;19.40;99.90
947;DHT22;460;48.734;9.152;2023-06-22T03:09:04;19.40;99.90
947;DHT22;460;48.734;9.152;2023-06-22T03:11:33;19.30;99.90
947;DHT22;460;48.734;9.152;2023-06-22T03:14:01;19.10;99.90
947;DHT22;460;48.734;9.152;2023-06-22T03:16:30;19.00;99.90
947;DHT22;460;48.734;9.152;2023-06-22T03:18:58;18.90;99.90
947;DHT22;460;48.734;9.152;2023-06-22T03:21:28;18.90;99.90
947;DHT22;460;48.734;9.152;2023-06-22T03:23:55;18.90;99.90
947;DHT22;460;48.734;9.152;2023-06-22T03:26:23;18.80;99.90
947;DHT22;460;48.734;9.152;2023-06-22T03:28:52;18.80;99.90
947;DHT22;460;48.734;9.152;2023-06-22T03:31:19;18.70;99.90
947;DHT22;460;48.734;9.152;2023-06-22T03:33:47;18.80;99.90
947;DHT22;460;48.734;9.152;2023-06-22T03:36:14;18.80;99.90
947;DHT22;460;48.734;9.152;2023-06-22T03:38:42;18.80;99.90
947;DHT22;460;48.734;9.152;2023-06-22T03:41:08;18.90;99.90
947;DHT22;460;48.734;9.152;2023-06-22T03:43:36;18.90;99.90
947;DHT22;460;48.734;9.152;2023-06-22T03:46:03;18.80;99.90
947;DHT22;460;48.734;9.152;2023-06-22T03:48:30;18.80;99.90
947;DHT22;460;48.734;9.152;2023-06-22T03:50:58;18.80;99.90
947;DHT22;460;48.734;9.152;2023-06-22T03:53:25;18.70;99.90
947;DHT22;460;48.734;9.152;2023-06-22T03:55:53;18.80;99.90
947;DHT22;460;48.734;9.152;2023-06-22T03:58:21;18.90;99.90
947;DHT22;460;48.734;9.152;2023-06-22T04:00:50;18.90;99.90
947;DHT22;460;48.734;9.152;2023-06-22T04:03:17;19.00;99.90
947;DHT22;460;48.734;9.152;2023-06-22T04:05:45;19.00;99.90
947;DHT22;460;48.734;9.152;2023-06-22T04:08:12;19.00;99.90
947;DHT22;460;48.734;9.152;2023-06-22T04:10:39;19.00;99.90
947;DHT22;460;48.734;9.152;2023-06-22T04:13:06;19.00;99.90
947;DHT22;460;48.734;9.152;2023-06-22T04:15:33;19.00;99.90
947;DHT22;460;48.734;9.152;2023-06-22T04:18:01;19.00;99.90
947;DHT22;460;48.734;9.152;2023-06-22T04:20:28;19.20;99.90
947;DHT22;460;48.734;9.152;2023-06-22T04:22:55;19.30;99.90
947;DHT22;460;48.734;9.152;2023-06-22T04:25:22;19.20;99.90
947;DHT22;460;48.734;9.152;2023-06-22T04:27:49;19.20;99.90
947;DHT22;460;48.734;9.152;2023-06-22T04:30:19;19.30;99.90
947;DHT22;460;48.734;9.152;2023-06-22T04:32:45;19.30;99.90
947;DHT22;460;48.734;9.152;2023-06-22T04:35:28;19.40;99.90
947;DHT22;460;48.734;9.152;2023-06-22T04:37:59;19.50;99.90
947;DHT22;460;48.734;9.152;2023-06-22T04:40:26;19.50;99.90
947;DHT22;460;48.734;9.152;2023-06-22T04:42:53;19.50;99.90
947;DHT22;460;48.734;9.152;2023-06-22T04:45:20;19.50;99.90
947;DHT22;460;48.734;9.152;2023-06-22T04:47:47;19.50;99.90
947;DHT22;460;48.734;9.152;2023-06-22T04:50:14;19.50;99.90
947;DHT22;460;48.734;9.152;2023-06-22T04:52:44;19.60;99.90
947;DHT22;460;48.734;9.152;2023-06-22T04:55:11;19.70;99.90
947;DHT22;460;48.734;9.152;2023-06-22T04:57:37;19.80;99.90
947;DHT22;460;48.734;9.152;2023-06-22T05:00:06;19.90;99.90
947;DHT22;460;48.734;9.152;2023-06-22T05:02:42;20.00;99.90
947;DHT22;460;48.734;9.152;2023-06-22T05:05:10;20.10;99.90
947;DHT22;460;48.734;9.152;2023-06-22T05:07:39;20.20;99.90
947;DHT22;460;48.734;9.152;2023-06-22T05:10:10;20.30;99.90
947;DHT22;460;48.734;9.152;2023-06-22T05:12:37;20.40;99.90
947;DHT22;460;48.734;9.152;2023-06-22T05:15:05;20.60;99.90
947;DHT22;460;48.734;9.152;2023-06-22T05:17:32;20.80;99.90
947;DHT22;460;48.734;9.152;2023-06-22T05:19:58;20.80;99.90
947;DHT22;460;48.734;9.152;2023-06-22T05:22:25;20.80;99.90
947;DHT22;460;48.734;9.152;2023-06-22T05:24:52;20.80;99.90
947;DHT22;460;48.734;9.152;2023-06-22T05:27:20;21.00;99.90
947;DHT22;460;48.734;9.152;2023-06-22T05:29:47;21.10;99.90
947;DHT22;460;48.734;9.152;2023-06-22T05:32:14;21.20;99.90
947;DHT22;460;48.734;9.152;2023-06-22T05:34:41;21.20;99.90
947;DHT22;460;48.734;9.152;2023-06-22T05:37:07;21.30;99.90
947;DHT22;460;48.734;9.152;2023-06-22T05:39:35;21.30;99.90
947;DHT22;460;48.734;9.152;2023-06-22T05:42:04;21.50;99.90
947;DHT22;460;48.734;9.152;2023-06-22T05:44:32;21.60;99.90
947;DHT22;460;48.734;9.152;2023-06-22T05:47:00;21.80;99.90
947;DHT22;460;48.734;9.152;2023-06-22T05:49:26;21.70;99.90
947;DHT22;460;48.734;9.152;2023-06-22T05:51:55;21.80;99.90
947;DHT22;460;48.734;9.152;2023-06-22T05:54:22;21.90;99.90
947;DHT22;460;48.734;9.152;2023-06-22T05:56:49;22.00;99.90
947;DHT22;460;48.734;9.152;2023-06-22T05:59:16;22.10;99.90
947;DHT22;460;48.734;9.152;2023-06-22T06:01:44;22.20;99.90
947;DHT22;460;48.734;9.152;2023-06-22T06:04:15;22.10;99.90
947;DHT22;460;48.734;9.152;2023-06-22T06:06:42;22.20;99.90
947;DHT22;460;48.734;9.152;2023-06-22T06:09:08;22.20;99.90
947;DHT22;460;48.734;9.152;2023-06-22T06:11:37;22.20;99.90
947;DHT22;460;48.734;9.152;2023-06-22T06:14:04;22.20;99.90
947;DHT22;460;48.734;9.152;2023-06-22T06:16:30;22.10;99.90
947;DHT22;460;48.734;9.152;2023-06-22T06:18:59;22.10;99.90
947;DHT22;460;48.734;9.152;2023-06-22T06:21:26;22.20;99.90
947;DHT22;460;48.734;9.152;2023-06-22T06:23:52;22.20;99.90
947;DHT22;460;48.734;9.152;2023-06-22T06:26:19;22.20;99.90
947;DHT22;460;48.734;9.152;2023-06-22T06:28:55;22.40;99.90
947;DHT22;460;48.734;9.152;2023-06-22T06:31:22;22.40;99.90
947;DHT22;460;48.734;9.152;2023-06-22T06:33:49;22.50;99.90
947;DHT22;460;48.734;9.152;2023-06-22T06:36:17;22.50;99.90
947;DHT22;460;48.734;9.152;2023-06-22T06:38:44;22.60;99.90
947;DHT22;460;48.734;9.152;2023-06-22T06:41:12;22.70;99.90
947;DHT22;460;48.734;9.152;2023-06-22T06:43:39;22.90;99.70
947;DHT22;460;48.734;9.152;2023-06-22T06:46:08;22.90;98.80
947;DHT22;460;48.734;9.152;2023-06-22T06:48:34;22.90;98.60
947;DHT22;460;48.734;9.152;2023-06-22T06:51:01;23.10;98.70
947;DHT22;460;48.734;9.152;2023-06-22T06:53:29;23.20;98.60
947;DHT22;460;48.734;9.152;2023-06-22T06:55:56;23.10;98.00
947;DHT22;460;48.734;9.152;2023-06-22T06:58:23;23.30;98.10
947;DHT22;460;48.734;9.152;2023-06-22T07:00:50;23.40;97.30
947;DHT22;460;48.734;9.152;2023-06-22T07:03:16;23.50;97.70
947;DHT22;460;48.734;9.152;2023-06-22T07:05:43;23.70;97.40
947;DHT22;460;48.734;9.152;2023-06-22T07:08:10;23.70;97.20
947;DHT22;460;48.734;9.152;2023-06-22T07:10:38;23.80;97.00
947;DHT22;460;48.734;9.152;2023-06-22T07:13:05;23.90;97.70
947;DHT22;460;48.734;9.152;2023-06-22T07:15:32;23.90;96.90
947;DHT22;460;48.734;9.152;2023-06-22T07:17:58;24.10;96.40
947;DHT22;460;48.734;9.152;2023-06-22T07:20:25;24.20;95.90
947;DHT22;460;48.734;9.152;2023-06-22T07:22:52;24.20;95.70
947;DHT22;460;48.734;9.152;2023-06-22T07:25:19;24.20;96.00
947;DHT22;460;48.734;9.152;2023-06-22T07:27:58;24.40;95.30
947;DHT22;460;48.734;9.152;2023-06-22T07:30:25;24.50;95.10
947;DHT22;460;48.734;9.152;2023-06-22T07:32:52;24.50;95.50
947;DHT22;460;48.734;9.152;2023-06-22T07:35:19;24.60;94.90
947;DHT22;460;48.734;9.152;2023-06-22T07:37:46;24.70;95.10
947;DHT22;460;48.734;9.152;2023-06-22T07:40:13;24.80;94.90
947;DHT22;460;48.734;9.152;2023-06-22T07:42:40;24.90;94.90
947;DHT22;460;48.734;9.152;2023-06-22T07:45:08;24.90;95.20
947;DHT22;460;48.734;9.152;2023-06-22T07:47:35;25.00;95.30
947;DHT22;460;48.734;9.152;2023-06-22T07:50:03;25.20;94.10
947;DHT22;460;48.734;9.152;2023-06-22T07:52:30;25.30;94.40
947;DHT22;460;48.734;9.152;2023-06-22T07:54:57;25.40;93.60
947;DHT22;460;48.734;9.152;2023-06-22T07:57:24;25.50;93.50
947;DHT22;460;48.734;9.152;2023-06-22T07:59:57;25.60;93.40
947;DHT22;460;48.734;9.152;2023-06-22T08:02:25;25.70;93.30
947;DHT22;460;48.734;9.152;2023-06-22T08:04:52;25.80;93.00
947;DHT22;460;48.734;9.152;2023-06-22T08:07:19;25.90;93.20
947;DHT22;460;48.734;9.152;2023-06-22T08:09:47;26.10;92.30
947;DHT22;460;48.734;9.152;2023-06-22T08:12:14;26.10;92.20
947;DHT22;460;48.734;9.152;2023-06-22T08:14:42;26.00;92.50
947;DHT22;460;48.734;9.152;2023-06-22T08:17:09;26.00;93.30
947;DHT22;460;48.734;9.152;2023-06-22T08:19:40;26.10;91.60
947;DHT22;460;48.734;9.152;2023-06-22T08:22:06;26.20;91.60
947;DHT22;460;48.734;9.152;2023-06-22T08:24:33;26.30;91.90
947;DHT22;460;48.734;9.152;2023-06-22T08:27:00;26.30;91.90
947;DHT22;460;48.734;9.152;2023-06-22T08:29:27;26.30;91.50
947;DHT22;460;48.734;9.152;2023-06-22T08:31:54;26.40;92.00
947;DHT22;460;48.734;9.152;2023-06-22T08:34:21;26.50;91.50
947;DHT22;460;48.734;9.152;2023-06-22T08:36:52;26.60;91.60
947;DHT22;460;48.734;9.152;2023-06-22T08:39:19;26.60;90.50
947;DHT22;460;48.734;9.152;2023-06-22T08:41:46;26.50;90.20
947;DHT22;460;48.734;9.152;2023-06-22T08:44:13;26.50;91.30
947;DHT22;460;48.734;9.152;2023-06-22T08:46:40;26.60;91.80
947;DHT22;460;48.734;9.152;2023-06-22T08:49:07;26.70;90.70
947;DHT22;460;48.734;9.152;2023-06-22T08:51:35;26.70;90.10
947;DHT22;460;48.734;9.152;2023-06-22T08:54:03;26.90;90.40
947;DHT22;460;48.734;9.152;2023-06-22T08:56:30;27.20;88.70
947;DHT22;460;48.734;9.152;2023-06-22T08:58:57;27.20;90.00
947;DHT22;460;48.734;9.152;2023-06-22T09:01:24;27.20;89.90
947;DHT22;460;48.734;9.152;2023-06-22T09:03:50;27.40;88.70
947;DHT22;460;48.734;9.152;2023-06-22T09:06:22;27.40;88.70
947;DHT22;460;48.734;9.152;2023-06-22T09:08:49;27.10;89.70
947;DHT22;460;48.734;9.152;2023-06-22T09:11:18;27.00;89.10
947;DHT22;460;48.734;9.152;2023-06-22T09:13:45;27.20;90.00
947;DHT22;460;48.734;9.152;2023-06-22T09:16:12;27.20;88.00
947;DHT22;460;48.734;9.152;2023-06-22T09:18:38;27.30;88.40
947;DHT22;460;48.734;9.152;2023-06-22T09:21:05;27.30;89.10
947;DHT22;460;48.734;9.152;2023-06-22T09:23:32;27.40;89.10
947;DHT22;460;48.734;9.152;2023-06-22T09:25:59;27.60;89.10
947;DHT22;460;48.734;9.152;2023-06-22T09:28:28;27.60;88.90
947;DHT22;460;48.734;9.152;2023-06-22T09:30:54;27.60;88.50
947;DHT22;460;48.734;9.152;2023-06-22T09:33:23;27.60;89.50
947;DHT22;460;48.734;9.152;2023-06-22T09:35:50;27.80;89.90
947;DHT22;460;48.734;9.152;2023-06-22T09:38:17;28.00;88.60
947;DHT22;460;48.734;9.152;2023-06-22T09:40:44;28.10;88.70
947;DHT22;460;48.734;9.152;2023-06-22T09:43:11;28.40;86.70
947;DHT22;460;48.734;9.152;2023-06-22T09:45:39;28.50;86.20
947;DHT22;460;48.734;9.152;2023-06-22T09:48:06;28.50;86.90
947;DHT22;460;48.734;9.152;2023-06-22T09:50:33;28.70;86.40
947;DHT22;460;48.734;9.152;2023-06-22T09:53:00;28.90;85.00
947;DHT22;460;48.734;9.152;2023-06-22T09:55:26;29.00;84.00
947;DHT22;460;48.734;9.152;2023-06-22T09:57:53;28.80;85.60
947;DHT22;460;48.734;9.152;2023-06-22T10:00:21;29.00;85.90
947;DHT22;460;48.734;9.152;2023-06-22T10:02:49;29.30;84.30
947;DHT22;460;48.734;9.152;2023-06-22T10:05:16;29.40;82.90
947;DHT22;460;48.734;9.152;2023-06-22T10:07:43;29.40;82.20
947;DHT22;460;48.734;9.152;2023-06-22T10:10:10;29.40;81.20
947;DHT22;460;48.734;9.152;2023-06-22T10:12:41;29.20;82.40
947;DHT22;460;48.734;9.152;2023-06-22T10:15:09;29.20;80.90
947;DHT22;460;48.734;9.152;2023-06-22T10:17:36;29.20;81.40
947;DHT22;460;48.734;9.152;2023-06-22T10:20:05;29.20;80.40
947;DHT22;460;48.734;9.152;2023-06-22T10:22:37;29.30;81.50
947;DHT22;460;48.734;9.152;2023-06-22T10:25:09;29.40;80.10
947;DHT22;460;48.734;9.152;2023-06-22T10:27:36;29.40;80.40
947;DHT22;460;48.734;9.152;2023-06-22T10:30:06;29.50;80.40
947;DHT22;460;48.734;9.152;2023-06-22T10:32:33;29.70;79.80
947;DHT22;460;48.734;9.152;2023-06-22T10:35:01;29.80;79.10
947;DHT22;460;48.734;9.152;2023-06-22T10:37:29;29.80;78.40
947;DHT22;460;48.734;9.152;2023-06-22T10:39:56;30.00;78.60
947;DHT22;460;48.734;9.152;2023-06-22T10:42:22;30.10;78.70
947;DHT22;460;48.734;9.152;2023-06-22T10:44:49;30.10;78.30
947;DHT22;460;48.734;9.152;2023-06-22T10:47:16;30.20;80.90
947;DHT22;460;48.734;9.152;2023-06-22T10:49:43;30.40;79.00
947;DHT22;460;48.734;9.152;2023-06-22T10:52:09;30.30;77.40
947;DHT22;460;48.734;9.152;2023-06-22T10:54:38;30.20;78.60
947;DHT22;460;48.734;9.152;2023-06-22T10:57:05;30.20;78.70
947;DHT22;460;48.734;9.152;2023-06-22T10:59:32;30.20;77.10
947;DHT22;460;48.734;9.152;2023-06-22T11:01:59;30.30;76.60
947;DHT22;460;48.734;9.152;2023-06-22T11:04:26;30.20;76.20
947;DHT22;460;48.734;9.152;2023-06-22T11:06:52;30.20;77.90
947;DHT22;460;48.734;9.152;2023-06-22T11:09:19;30.10;77.30
947;DHT22;460;48.734;9.152;2023-06-22T11:11:48;30.00;78.90
947;DHT22;460;48.734;9.152;2023-06-22T11:14:16;29.90;78.30
947;DHT22;460;48.734;9.152;2023-06-22T11:16:42;30.10;75.90
947;DHT22;460;48.734;9.152;2023-06-22T11:19:09;29.80;75.80
947;DHT22;460;48.734;9.152;2023-06-22T11:21:36;29.70;77.00
947;DHT22;460;48.734;9.152;2023-06-22T11:24:03;29.70;78.20
947;DHT22;460;48.734;9.152;2023-06-22T11:26:30;29.70;77.20
947;DHT22;460;48.734;9.152;2023-06-22T11:28:58;29.70;77.20
947;DHT22;460;48.734;9.152;2023-06-22T11:31:25;29.80;76.50
947;DHT22;460;48.734;9.152;2023-06-22T11:33:52;29.80;79.30
947;DHT22;460;48.734;9.152;2023-06-22T11:36:19;29.90;79.10
947;DHT22;460;48.734;9.152;2023-06-22T11:38:46;29.90;77.60
947;DHT22;460;48.734;9.152;2023-06-22T11:41:13;30.30;78.20
947;DHT22;460;48.734;9.152;2023-06-22T11:43:39;30.70;76.70
947;DHT22;460;48.734;9.152;2023-06-22T11:46:07;31.00;76.60
947;DHT22;460;48.734;9.152;2023-06-22T11:48:34;31.30;75.50
947;DHT22;460;48.734;9.152;2023-06-22T11:51:01;31.40;74.20
947;DHT22;460;48.734;9.152;2023-06-22T11:53:29;31.30;75.60
947;DHT22;460;48.734;9.152;2023-06-22T11:55:56;31.30;75.60
947;DHT22;460;48.734;9.152;2023-06-22T11:58:23;31.40;74.60
947;DHT22;460;48.734;9.152;2023-06-22T12:00:49;31.40;74.30
947;DHT22;460;48.734;9.152;2023-06-22T12:03:19;31.40;74.20
947;DHT22;460;48.734;9.152;2023-06-22T12:05:46;31.30;73.90
947;DHT22;460;48.734;9.152;2023-06-22T12:08:13;31.30;75.50
947;DHT22;460;48.734;9.152;2023-06-22T12:10:40;31.50;73.70
947;DHT22;460;48.734;9.152;2023-06-22T12:13:07;31.40;73.70
947;DHT22;460;48.734;9.152;2023-06-22T12:15:34;31.10;74.50
947;DHT22;460;48.734;9.152;2023-06-22T12:18:01;30.80;76.10
947;DHT22;460;48.734;9.152;2023-06-22T12:20:29;30.50;76.50
947;DHT22;460;48.734;9.152;2023-06-22T12:22:57;30.40;77.20
947;DHT22;460;48.734;9.152;2023-06-22T12:25:23;30.50;76.60
947;DHT22;460;48.734;9.152;2023-06-22T12:27:50;30.30;76.70
947;DHT22;460;48.734;9.152;2023-06-22T12:30:17;30.40;75.80
947;DHT22;460;48.734;9.152;2023-06-22T12:32:44;30.20;75.60
947;DHT22;460;48.734;9.152;2023-06-22T12:35:11;30.10;76.40
947;DHT22;460;48.734;9.152;2023-06-22T12:37:41;29.90;77.50
947;DHT22;460;48.734;9.152;2023-06-22T12:40:09;29.80;79.20
947;DHT22;460;48.734;9.152;2023-06-22T12:42:36;29.60;79.60
947;DHT22;460;48.734;9.152;2023-06-22T12:45:03;29.50;82.70
947;DHT22;460;48.734;9.152;2023-06-22T12:47:30;29.50;80.30
947;DHT22;460;48.734;9.152;2023-06-22T12:49:57;29.40;82.00
947;DHT22;460;48.734;9.152;2023-06-22T12:52:23;29.40;81.00
947;DHT22;460;48.734;9.152;2023-06-22T12:54:52;29.50;79.40
947;DHT22;460;48.734;9.152;2023-06-22T12:57:19;29.50;79.30
947;DHT22;460;48.734;9.152;2023-06-22T12:59:46;29.50;79.10
947;DHT22;460;48.734;9.152;2023-06-22T13:02:13;29.50;78.70
947;DHT22;460;48.734;9.152;2023-06-22T13:04:40;29.50;79.60
947;DHT22;460;48.734;9.152;2023-06-22T13:07:08;29.40;80.60
947;DHT22;460;48.734;9.152;2023-06-22T13:09:36;29.40;82.00
947;DHT22;460;48.734;9.152;2023-06-22T13:12:05;29.40;80.10
947;DHT22;460;48.734;9.152;2023-06-22T13:14:32;29.30;81.30
947;DHT22;460;48.734;9.152;2023-06-22T13:16:59;29.30;82.80
947;DHT22;460;48.734;9.152;2023-06-22T13:19:25;29.30;83.40
947;DHT22;460;48.734;9.152;2023-06-22T13:21:54;29.40;81.20
947;DHT22;460;48.734;9.152;2023-06-22T13:24:21;29.50;81.40
947;DHT22;460;48.734;9.152;2023-06-22T13:26:48;29.30;80.20
947;DHT22;460;48.734;9.152;2023-06-22T13:29:16;29.40;80.60
947;DHT22;460;48.734;9.152;2023-06-22T13:31:43;29.50;83.50
947;DHT22;460;48.734;9.152;2023-06-22T13:34:09;29.60;79.40
947;DHT22;460;48.734;9.152;2023-06-22T13:36:36;29.60;80.00
947;DHT22;460;48.734;9.152;2023-06-22T13:39:03;29.60;82.80
947;DHT22;460;48.734;9.152;2023-06-22T13:41:30;29.60;78.80
947;DHT22;460;48.734;9.152;2023-06-22T13:43:57;29.70;78.90
947;DHT22;460;48.734;9.152;2023-06-22T13:46:25;29.60;76.80
947;DHT22;460;48.734;9.152;2023-06-22T13:48:52;29.60;78.90
947;DHT22;460;48.734;9.152;2023-06-22T13:51:19;29.40;82.30
947;DHT22;460;48.734;9.152;2023-06-22T13:53:46;29.40;82.00
947;DHT22;460;48.734;9.152;2023-06-22T13:56:12;29.40;78.80
947;DHT22;460;48.734;9.152;2023-06-22T13:58:39;29.50;79.50
947;DHT22;460;48.734;9.152;2023-06-22T14:01:06;29.80;79.70
947;DHT22;460;48.734;9.152;2023-06-22T14:03:34;30.00;81.50
947;DHT22;460;48.734;9.152;2023-06-22T14:06:01;30.40;81.80
947;DHT22;460;48.734;9.152;2023-06-22T14:08:27;30.80;78.60
947;DHT22;460;48.734;9.152;2023-06-22T14:10:54;31.30;79.30
947;DHT22;460;48.734;9.152;2023-06-22T14:13:21;31.90;75.00
947;DHT22;460;48.734;9.152;2023-06-22T14:15:48;32.50;72.90
947;DHT22;460;48.734;9.152;2023-06-22T14:18:17;33.10;70.40
947;DHT22;460;48.734;9.152;2023-06-22T14:20:45;33.80;67.80
947;DHT22;460;48.734;9.152;2023-06-22T14:23:13;34.20;61.30
947;DHT22;460;48.734;9.152;2023-06-22T14:25:40;33.70;65.60
947;DHT22;460;48.734;9.152;2023-06-22T14:28:07;33.50;63.40
947;DHT22;460;48.734;9.152;2023-06-22T14:30:34;32.90;64.80
947;DHT22;460;48.734;9.152;2023-06-22T14:33:00;32.70;66.30
947;DHT22;460;48.734;9.152;2023-06-22T14:35:27;32.50;62.60
947;DHT22;460;48.734;9.152;2023-06-22T14:37:55;33.10;64.50
947;DHT22;460;48.734;9.152;2023-06-22T14:40:22;33.80;56.00
947;DHT22;460;48.734;9.152;2023-06-22T14:42:49;34.20;56.10
947;DHT22;460;48.734;9.152;2023-06-22T14:45:16;34.30;54.70
947;DHT22;460;48.734;9.152;2023-06-22T14:47:42;34.30;52.20
947;DHT22;460;48.734;9.152;2023-06-22T14:50:09;34.40;51.10
947;DHT22;460;48.734;9.152;2023-06-22T14:52:36;34.50;53.30
947;DHT22;460;48.734;9.152;2023-06-22T14:55:06;34.50;52.40
947;DHT22;460;48.734;9.152;2023-06-22T14:57:32;34.00;50.40
947;DHT22;460;48.734;9.152;2023-06-22T14:59:59;33.90;49.00
947;DHT22;460;48.734;9.152;2023-06-22T15:02:27;33.60;48.60
947;DHT22;460;48.734;9.152;2023-06-22T15:04:54;33.60;49.70
947;DHT22;460;48.734;9.152;2023-06-22T15:07:21;33.30;47.70
947;DHT22;460;48.734;9.152;2023-06-22T15:09:47;32.60;48.80
947;DHT22;460;48.734;9.152;2023-06-22T15:12:16;32.60;50.40
947;DHT22;460;48.734;9.152;2023-06-22T15:14:42;32.30;50.40
947;DHT22;460;48.734;9.152;2023-06-22T15:17:09;32.50;50.30
947;DHT22;460;48.734;9.152;2023-06-22T15:19:39;32.60;51.40
947;DHT22;460;48.734;9.152;2023-06-22T15:22:06;32.80;51.60
947;DHT22;460;48.734;9.152;2023-06-22T15:24:34;32.70;48.50
947;DHT22;460;48.734;9.152;2023-06-22T15:27:00;32.40;48.90
947;DHT22;460;48.734;9.152;2023-06-22T15:29:29;32.30;49.10
947;DHT22;460;48.734;9.152;2023-06-22T15:31:59;31.90;50.10
947;DHT22;460;48.734;9.152;2023-06-22T15:34:26;31.80;50.00
947;DHT22;460;48.734;9.152;2023-06-22T15:36:53;31.80;51.80
947;DHT22;460;48.734;9.152;2023-06-22T15:39:19;31.80;50.00
947;DHT22;460;48.734;9.152;2023-06-22T15:41:48;31.80;50.70
947;DHT22;460;48.734;9.152;2023-06-22T15:44:15;31.70;49.10
947;DHT22;460;48.734;9.152;2023-06-22T15:46:43;31.50;48.80
947;DHT22;460;48.734;9.152;2023-06-22T15:49:10;31.20;50.90
947;DHT22;460;48.734;9.152;2023-06-22T15:51:37;31.10;51.90
947;DHT22;460;48.734;9.152;2023-06-22T15:54:04;31.10;51.50
947;DHT22;460;48.734;9.152;2023-06-22T15:56:30;30.90;52.00
947;DHT22;460;48.734;9.152;2023-06-22T15:58:57;30.80;51.30
947;DHT22;460;48.734;9.152;2023-06-22T16:01:24;30.60;52.10
947;DHT22;460;48.734;9.152;2023-06-22T16:03:53;30.50;52.70
947;DHT22;460;48.734;9.152;2023-06-22T16:06:20;30.30;51.90
947;DHT22;460;48.734;9.152;2023-06-22T16:08:47;30.20;53.00
947;DHT22;460;48.734;9.152;2023-06-22T16:11:14;30.00;52.80
947;DHT22;460;48.734;9.152;2023-06-22T16:13:41;30.00;53.90
947;DHT22;460;48.734;9.152;2023-06-22T16:16:07;30.10;53.80
947;DHT22;460;48.734;9.152;2023-06-22T16:18:34;29.90;53.90
947;DHT22;460;48.734;9.152;2023-06-22T16:21:02;29.90;53.00
947;DHT22;460;48.734;9.152;2023-06-22T16:23:30;29.80;53.80
947;DHT22;460;48.734;9.152;2023-06-22T16:25:57;29.70;54.50
947;DHT22;460;48.734;9.152;2023-06-22T16:28:24;29.60;54.70
947;DHT22;460;48.734;9.152;2023-06-22T16:30:50;29.50;54.80
947;DHT22;460;48.734;9.152;2023-06-22T16:33:17;29.30;54.40
947;DHT22;460;48.734;9.152;2023-06-22T16:35:44;29.20;55.40